KLHM/LHM METAR and TAF weather

Enter ICAO airport designator
Station Type Date Time Source
KLHM METAR 2019/04/25 08:15 UTC NOAA

KLHM 250815Z AUTO 10005KT 10SM CLR 21/15 A2987 RMK AO1


Station Type Date Time Source
KLHM Decoded METAR 2019/04/25 08:15 UTC NOAA

Station name not available
Apr 25, 2019 - 04:15 AM EDT / 2019.04.25 0815 UTC
Wind: from the E (100 degrees) at 6 MPH (5 KT):0
Visibility: 10 mile(s):0
Sky conditions: clear
Temperature: 69 F (21 C)
Dew Point: 59 F (15 C)
Relative Humidity: 68%
Pressure (altimeter): 29.87 in. Hg (1011 hPa)
ob: KLHM 250815Z AUTO 10005KT 10SM CLR 21/15 A2987 RMK AO1
cycle: 8

Station Type Date Time Source
KLHM TAF UTC NOAA

Error!

Example: see airport list